Time;durP1;ratioP1;P1;durP2;ratioP2;P2;SDS_P1;SDS_P2;PMS_P1;PMS_P2;Temp;Humidity;BMP_temperature;BMP_pressure;BME280_temperature;BME280_humidity;BME280_pressure;Samples;Min_cycle;Max_cycle;Signal;HPM_P1;HPM_P2
2022/01/10 00:02:24;;;;;;;8.05;4.25;;;;;;;;;;4976979;28;20046;-86
2022/01/10 00:04:50;;;;;;;8.00;4.07;;;;;;;;;;4991870;28;20037;-86
2022/01/10 00:07:16;;;;;;;8.18;3.90;;;;;;;;;;4993811;28;20018;-88
2022/01/10 00:09:41;;;;;;;6.38;3.63;;;;;;;;;;4975396;28;20038;-87
2022/01/10 00:12:07;;;;;;;10.25;4.25;;;;;;;;;;4976788;28;20053;-87
2022/01/10 00:14:32;;;;;;;7.05;3.92;;;;;;;;;;4976018;28;20034;-88
2022/01/10 00:16:58;;;;;;;7.55;4.10;;;;;;;;;;4994385;28;20030;-88
2022/01/10 00:19:24;;;;;;;8.15;4.28;;;;;;;;;;4994183;28;20014;-88
2022/01/10 00:21:49;;;;;;;12.18;4.72;;;;;;;;;;4994462;28;20030;-85
2022/01/10 00:24:14;;;;;;;10.48;4.13;;;;;;;;;;4975654;28;20516;-90
2022/01/10 00:26:40;;;;;;;10.13;4.28;;;;;;;;;;4994398;28;20034;-87
2022/01/10 00:29:05;;;;;;;9.70;3.83;;;;;;;;;;4976569;28;20037;-87
2022/01/10 00:31:30;;;;;;;10.32;3.97;;;;;;;;;;4978157;28;20109;-89
2022/01/10 00:33:56;;;;;;;6.68;3.88;;;;;;;;;;4977920;28;20018;-89
2022/01/10 00:36:21;;;;;;;13.32;4.15;;;;;;;;;;4981196;28;20400;-87
2022/01/10 00:38:47;;;;;;;9.10;4.10;;;;;;;;;;5001750;28;20164;-86
2022/01/10 00:41:12;;;;;;;7.90;4.20;;;;;;;;;;4991776;28;21543;-86
2022/01/10 00:43:45;;;;;;;6.15;3.70;;;;;;;;;;4992902;28;20018;-88
2022/01/10 00:46:10;;;;;;;14.48;4.38;;;;;;;;;;4976201;28;20113;-88
2022/01/10 00:48:35;;;;;;;9.95;4.10;;;;;;;;;;4975174;28;20089;-86
2022/01/10 00:51:01;;;;;;;7.55;4.38;;;;;;;;;;4974985;28;20034;-86
2022/01/10 00:53:26;;;;;;;6.35;4.38;;;;;;;;;;4991327;28;20042;-84
2022/01/10 00:55:52;;;;;;;9.60;4.35;;;;;;;;;;4991486;28;20022;-86
2022/01/10 00:58:17;;;;;;;8.38;4.45;;;;;;;;;;4974332;28;20022;-88
2022/01/10 01:00:43;;;;;;;11.40;4.47;;;;;;;;;;4989800;28;20037;-85
2022/01/10 01:03:08;;;;;;;11.50;4.57;;;;;;;;;;4990857;28;20683;-84
2022/01/10 01:05:38;;;;;;;7.90;4.55;;;;;;;;;;4990564;28;20436;-88
2022/01/10 01:08:06;;;;;;;10.18;4.70;;;;;;;;;;4992827;28;20146;-89
2022/01/10 01:13:21;;;;;;;10.85;4.80;;;;;;;;;;4988893;28;20113;-86
2022/01/10 01:24:26;;;;;;;10.60;4.30;;;;;;;;;;4988724;28;20033;-87
2022/01/10 01:30:32;;;;;;;9.85;4.47;;;;;;;;;;4990178;28;20033;-88
2022/01/10 01:33:16;;;;;;;8.20;4.25;;;;;;;;;;4990032;28;20049;-87
2022/01/10 01:35:42;;;;;;;9.02;4.97;;;;;;;;;;4990950;28;20029;-89
2022/01/10 01:38:08;;;;;;;6.45;4.30;;;;;;;;;;4990718;28;20034;-87
2022/01/10 01:40:39;;;;;;;8.07;4.55;;;;;;;;;;4988876;28;20010;-87
2022/01/10 01:43:05;;;;;;;10.30;4.87;;;;;;;;;;4974584;28;20038;-86
2022/01/10 01:45:46;;;;;;;8.05;4.85;;;;;;;;;;4991871;28;20264;-88
2022/01/10 01:48:12;;;;;;;8.50;4.93;;;;;;;;;;4971717;28;20077;-85
2022/01/10 01:50:39;;;;;;;12.95;5.50;;;;;;;;;;4992357;28;20027;-88
2022/01/10 01:53:05;;;;;;;15.93;5.05;;;;;;;;;;4987974;28;20120;-85
2022/01/10 01:55:31;;;;;;;8.65;4.82;;;;;;;;;;4986097;28;20033;-86
2022/01/10 01:57:57;;;;;;;12.65;5.53;;;;;;;;;;4971701;28;20022;-87
2022/01/10 02:00:23;;;;;;;12.20;4.80;;;;;;;;;;4970186;28;20105;-89
2022/01/10 02:02:50;;;;;;;10.77;5.07;;;;;;;;;;4990109;28;20019;-87
2022/01/10 02:05:15;;;;;;;7.20;4.18;;;;;;;;;;4992774;28;20026;-89
2022/01/10 02:07:41;;;;;;;10.88;4.90;;;;;;;;;;4976156;28;20088;-86
2022/01/10 02:10:07;;;;;;;12.63;4.47;;;;;;;;;;4976545;28;20033;-87
2022/01/10 02:12:32;;;;;;;9.20;4.28;;;;;;;;;;4992945;28;20027;-87
2022/01/10 02:14:57;;;;;;;11.20;4.85;;;;;;;;;;4985133;28;20029;-88
2022/01/10 02:17:33;;;;;;;8.68;4.55;;;;;;;;;;5002786;28;20074;-87
2022/01/10 02:20:08;;;;;;;7.13;4.45;;;;;;;;;;4993971;28;20072;-88
2022/01/10 02:22:37;;;;;;;6.40;3.85;;;;;;;;;;4975842;28;20096;-87
2022/01/10 02:25:03;;;;;;;6.18;4.05;;;;;;;;;;4993221;28;20041;-87
2022/01/10 02:27:29;;;;;;;10.40;4.57;;;;;;;;;;4991358;28;20014;-87
2022/01/10 02:29:54;;;;;;;8.82;4.60;;;;;;;;;;4976319;28;20049;-89
2022/01/10 02:32:21;;;;;;;10.25;4.15;;;;;;;;;;4992655;28;20034;-88
2022/01/10 02:34:46;;;;;;;15.98;5.20;;;;;;;;;;4975640;28;20022;-88
2022/01/10 02:37:31;;;;;;;10.85;4.35;;;;;;;;;;4994162;28;20110;-89
2022/01/10 02:39:58;;;;;;;9.73;4.13;;;;;;;;;;4992974;28;20554;-89
2022/01/10 02:42:24;;;;;;;7.78;4.43;;;;;;;;;;4993159;28;20093;-88
2022/01/10 02:44:49;;;;;;;10.02;4.85;;;;;;;;;;4993040;28;20076;-88
2022/01/10 02:47:14;;;;;;;12.73;4.18;;;;;;;;;;4975582;28;20030;-88
2022/01/10 02:49:40;;;;;;;8.82;5.15;;;;;;;;;;4993250;28;20027;-87
2022/01/10 02:52:06;;;;;;;6.53;4.07;;;;;;;;;;4990476;28;20417;-88
2022/01/10 02:54:32;;;;;;;6.75;4.15;;;;;;;;;;4992767;28;20029;-89
2022/01/10 02:56:57;;;;;;;8.45;4.55;;;;;;;;;;4993523;28;20026;-88
2022/01/10 02:59:24;;;;;;;10.63;4.70;;;;;;;;;;4993072;28;20453;-88
2022/01/10 03:01:51;;;;;;;9.90;4.70;;;;;;;;;;4976909;28;20476;-88
2022/01/10 03:04:16;;;;;;;9.60;4.80;;;;;;;;;;4975928;28;20102;-89
2022/01/10 03:06:43;;;;;;;10.75;4.88;;;;;;;;;;4993703;28;20055;-88
2022/01/10 03:09:09;;;;;;;8.20;4.50;;;;;;;;;;4975820;28;20030;-89
2022/01/10 03:11:37;;;;;;;10.52;4.97;;;;;;;;;;4975697;28;20080;-89
2022/01/10 03:14:03;;;;;;;8.70;5.18;;;;;;;;;;4992566;28;20026;-89
2022/01/10 03:16:29;;;;;;;7.50;4.72;;;;;;;;;;4993350;28;20447;-89
2022/01/10 03:18:55;;;;;;;12.20;5.00;;;;;;;;;;4993572;28;20037;-88
2022/01/10 03:21:21;;;;;;;8.23;4.78;;;;;;;;;;4975327;28;20118;-88
2022/01/10 03:23:51;;;;;;;9.25;4.60;;;;;;;;;;4973732;28;20369;-88
2022/01/10 03:26:17;;;;;;;7.20;4.10;;;;;;;;;;4981565;28;20527;-88
2022/01/10 03:28:42;;;;;;;9.68;4.32;;;;;;;;;;4972388;28;20157;-88
2022/01/10 03:31:08;;;;;;;10.07;4.63;;;;;;;;;;4993004;28;20088;-88
2022/01/10 03:33:34;;;;;;;8.50;4.75;;;;;;;;;;4992714;28;20026;-89
2022/01/10 03:35:59;;;;;;;10.27;4.80;;;;;;;;;;4995476;28;20109;-89
2022/01/10 03:38:24;;;;;;;7.72;4.55;;;;;;;;;;5005106;28;20019;-87
2022/01/10 03:40:50;;;;;;;8.82;4.35;;;;;;;;;;4979937;28;20030;-89
2022/01/10 03:43:15;;;;;;;13.30;4.50;;;;;;;;;;4978946;28;20014;-88
2022/01/10 03:45:40;;;;;;;8.25;3.95;;;;;;;;;;4985669;28;20018;-89
2022/01/10 03:48:06;;;;;;;11.70;4.40;;;;;;;;;;5017015;28;20108;-90
2022/01/10 03:50:31;;;;;;;9.48;4.07;;;;;;;;;;4999813;28;20028;-87
2022/01/10 03:52:57;;;;;;;9.38;4.30;;;;;;;;;;4999748;28;20030;-89
2022/01/10 03:55:23;;;;;;;6.78;4.07;;;;;;;;;;5016567;28;20052;-88
2022/01/10 03:57:48;;;;;;;11.23;4.65;;;;;;;;;;5001820;28;20448;-87
2022/01/10 04:00:14;;;;;;;12.23;4.97;;;;;;;;;;4980585;28;20117;-87
2022/01/10 04:02:43;;;;;;;10.15;4.30;;;;;;;;;;5013322;28;20017;-87
2022/01/10 04:05:08;;;;;;;9.68;4.65;;;;;;;;;;5016666;28;20033;-87
2022/01/10 04:07:35;;;;;;;10.98;5.47;;;;;;;;;;4980631;28;20022;-87
2022/01/10 04:10:01;;;;;;;9.80;4.63;;;;;;;;;;4997020;28;20046;-88
2022/01/10 04:12:26;;;;;;;8.55;4.60;;;;;;;;;;4978957;28;20054;-89
2022/01/10 04:14:52;;;;;;;10.40;4.80;;;;;;;;;;4981348;28;20064;-88
2022/01/10 04:17:17;;;;;;;8.07;4.95;;;;;;;;;;5004317;28;20032;-89
2022/01/10 04:19:42;;;;;;;8.05;4.63;;;;;;;;;;4995441;28;20029;-88
2022/01/10 04:22:08;;;;;;;12.13;5.15;;;;;;;;;;4986159;28;20508;-89
2022/01/10 04:24:33;;;;;;;9.77;4.65;;;;;;;;;;4998237;28;20018;-87
2022/01/10 04:26:59;;;;;;;9.35;4.63;;;;;;;;;;4999276;28;20143;-89
2022/01/10 04:29:24;;;;;;;14.48;5.15;;;;;;;;;;4982114;28;20026;-88
2022/01/10 04:31:49;;;;;;;11.30;5.07;;;;;;;;;;5007090;28;20037;-88
2022/01/10 04:34:16;;;;;;;10.65;5.57;;;;;;;;;;5002657;28;20644;-88
2022/01/10 04:36:43;;;;;;;17.40;6.13;;;;;;;;;;4993001;28;20085;-88
2022/01/10 04:39:08;;;;;;;11.60;5.55;;;;;;;;;;5008105;28;20034;-87
2022/01/10 04:41:34;;;;;;;12.00;5.28;;;;;;;;;;5006387;28;20066;-89
2022/01/10 04:43:59;;;;;;;8.27;4.93;;;;;;;;;;5015591;28;20018;-87
2022/01/10 04:46:24;;;;;;;9.90;4.93;;;;;;;;;;4986575;28;20036;-88
2022/01/10 04:48:50;;;;;;;16.25;5.38;;;;;;;;;;5003466;28;20034;-88
2022/01/10 04:51:16;;;;;;;14.15;5.78;;;;;;;;;;4990806;28;20021;-88
2022/01/10 04:53:48;;;;;;;9.50;5.07;;;;;;;;;;5010567;28;20022;-87
2022/01/10 04:56:15;;;;;;;10.05;5.57;;;;;;;;;;5022865;28;20022;-87
2022/01/10 04:58:42;;;;;;;8.13;5.38;;;;;;;;;;5000746;28;20034;-87
2022/01/10 05:01:08;;;;;;;11.30;4.97;;;;;;;;;;4977601;28;20060;-88
2022/01/10 05:03:34;;;;;;;11.07;5.43;;;;;;;;;;4996192;28;20025;-87
2022/01/10 05:05:59;;;;;;;9.88;5.15;;;;;;;;;;4979542;28;20403;-89
2022/01/10 05:08:25;;;;;;;11.85;4.93;;;;;;;;;;4980521;28;20396;-89
2022/01/10 05:10:51;;;;;;;12.07;5.63;;;;;;;;;;4978764;28;20029;-88
2022/01/10 05:13:17;;;;;;;9.35;4.95;;;;;;;;;;4979533;28;20023;-86
2022/01/10 05:15:46;;;;;;;12.55;5.28;;;;;;;;;;4977573;28;20029;-87
2022/01/10 05:18:11;;;;;;;13.52;5.75;;;;;;;;;;4993593;28;20022;-88
2022/01/10 05:20:37;;;;;;;10.65;5.93;;;;;;;;;;4995071;28;20093;-88
2022/01/10 05:23:02;;;;;;;15.75;6.28;;;;;;;;;;4992924;28;20341;-86
2022/01/10 05:25:28;;;;;;;13.15;6.45;;;;;;;;;;4974437;28;20626;-87
2022/01/10 05:27:53;;;;;;;12.50;6.10;;;;;;;;;;4981563;28;20037;-87
2022/01/10 05:30:19;;;;;;;9.15;5.90;;;;;;;;;;4976077;28;20435;-87
2022/01/10 05:32:44;;;;;;;16.35;6.45;;;;;;;;;;4977050;28;20098;-88
2022/01/10 05:35:10;;;;;;;13.73;6.00;;;;;;;;;;4993410;28;20109;-89
2022/01/10 05:37:35;;;;;;;13.07;6.43;;;;;;;;;;4977814;28;20110;-88
2022/01/10 05:40:00;;;;;;;12.75;6.90;;;;;;;;;;4995552;28;20032;-90
2022/01/10 05:42:26;;;;;;;12.35;6.70;;;;;;;;;;4976710;28;20053;-90
2022/01/10 05:44:51;;;;;;;14.13;6.93;;;;;;;;;;4988925;28;20414;-92
2022/01/10 05:47:17;;;;;;;13.05;6.50;;;;;;;;;;4978987;28;20089;-88
2022/01/10 05:49:47;;;;;;;15.20;7.50;;;;;;;;;;4987122;28;20022;-89
2022/01/10 05:52:13;;;;;;;14.80;7.07;;;;;;;;;;4977848;28;20033;-90
2022/01/10 05:54:38;;;;;;;18.13;7.10;;;;;;;;;;4977286;28;20034;-86
2022/01/10 05:57:04;;;;;;;15.45;7.22;;;;;;;;;;4980678;28;20117;-88
2022/01/10 05:59:31;;;;;;;14.07;6.85;;;;;;;;;;4991177;28;20041;-88
2022/01/10 06:01:57;;;;;;;13.48;7.25;;;;;;;;;;4994082;28;20022;-86
2022/01/10 06:04:23;;;;;;;12.02;7.07;;;;;;;;;;4976113;28;20025;-87
2022/01/10 06:06:49;;;;;;;20.65;9.45;;;;;;;;;;4986798;28;20022;-85
2022/01/10 06:09:14;;;;;;;19.23;8.38;;;;;;;;;;4994273;28;20503;-87
2022/01/10 06:11:40;;;;;;;17.80;8.93;;;;;;;;;;4979318;28;20026;-88
2022/01/10 06:14:07;;;;;;;29.30;9.65;;;;;;;;;;4991928;28;20058;-86
2022/01/10 06:16:33;;;;;;;20.10;9.50;;;;;;;;;;4993521;28;20030;-87
2022/01/10 06:18:58;;;;;;;22.58;9.07;;;;;;;;;;4990000;28;20038;-87
2022/01/10 06:21:23;;;;;;;15.65;8.60;;;;;;;;;;4990979;28;20057;-85
2022/01/10 06:23:49;;;;;;;18.88;8.73;;;;;;;;;;4992741;28;20244;-86
2022/01/10 06:26:14;;;;;;;26.48;9.73;;;;;;;;;;4993893;28;20029;-87
2022/01/10 06:28:40;;;;;;;19.77;10.50;;;;;;;;;;4992949;28;20180;-87
2022/01/10 06:31:05;;;;;;;24.90;10.63;;;;;;;;;;4992902;28;20030;-87
2022/01/10 06:33:30;;;;;;;24.65;9.98;;;;;;;;;;4993355;28;20030;-86
2022/01/10 06:35:56;;;;;;;24.50;10.68;;;;;;;;;;4988472;28;20035;-87
2022/01/10 06:38:21;;;;;;;27.17;12.10;;;;;;;;;;4975647;28;20026;-88
2022/01/10 06:40:46;;;;;;;27.00;11.23;;;;;;;;;;4992751;28;20400;-87
2022/01/10 06:43:12;;;;;;;23.83;11.30;;;;;;;;;;5008454;28;20026;-86
2022/01/10 06:45:37;;;;;;;23.65;11.35;;;;;;;;;;4992609;28;20077;-86
2022/01/10 06:48:04;;;;;;;26.48;12.13;;;;;;;;;;4977665;28;20089;-87
2022/01/10 06:50:30;;;;;;;24.30;12.45;;;;;;;;;;4993379;28;20018;-86
2022/01/10 06:52:57;;;;;;;25.17;11.68;;;;;;;;;;4974520;28;20096;-87
2022/01/10 06:55:22;;;;;;;27.13;10.05;;;;;;;;;;4975645;28;20034;-87
2022/01/10 06:57:48;;;;;;;25.20;11.57;;;;;;;;;;4980298;28;20037;-87
2022/01/10 07:00:14;;;;;;;25.55;10.68;;;;;;;;;;4975557;28;20395;-88
2022/01/10 07:02:39;;;;;;;27.92;12.55;;;;;;;;;;4976341;28;20029;-87
2022/01/10 07:05:05;;;;;;;25.88;11.88;;;;;;;;;;4992998;28;20037;-87
2022/01/10 07:07:30;;;;;;;28.23;12.52;;;;;;;;;;4987993;28;20040;-87
2022/01/10 07:09:56;;;;;;;26.67;11.40;;;;;;;;;;4996766;28;20459;-87
2022/01/10 07:12:21;;;;;;;22.08;10.90;;;;;;;;;;4994776;28;20516;-87
2022/01/10 07:14:46;;;;;;;29.23;11.07;;;;;;;;;;4995626;28;20037;-86
2022/01/10 07:17:12;;;;;;;29.90;11.77;;;;;;;;;;4997146;28;20058;-88
2022/01/10 07:19:37;;;;;;;26.35;11.70;;;;;;;;;;4998770;28;20026;-87
2022/01/10 07:22:03;;;;;;;24.00;12.73;;;;;;;;;;4993115;28;20061;-87
2022/01/10 07:24:29;;;;;;;21.50;11.40;;;;;;;;;;4991387;28;20038;-85
2022/01/10 07:26:54;;;;;;;22.42;11.10;;;;;;;;;;5008356;28;20466;-87
2022/01/10 07:29:20;;;;;;;21.38;9.68;;;;;;;;;;4996657;28;20383;-86
2022/01/10 07:31:46;;;;;;;24.08;10.38;;;;;;;;;;4981517;28;20038;-86
2022/01/10 07:34:14;;;;;;;21.95;9.60;;;;;;;;;;4995749;28;20029;-88
2022/01/10 07:36:40;;;;;;;19.75;10.65;;;;;;;;;;4992733;28;20066;-87
2022/01/10 07:39:06;;;;;;;20.98;10.38;;;;;;;;;;4997827;28;20784;-86
2022/01/10 07:41:32;;;;;;;20.98;10.77;;;;;;;;;;4997494;28;20033;-86
2022/01/10 07:43:59;;;;;;;22.77;10.63;;;;;;;;;;4996676;28;20026;-87
2022/01/10 07:46:26;;;;;;;20.40;9.77;;;;;;;;;;5006437;28;20022;-84
2022/01/10 07:48:54;;;;;;;23.65;10.50;;;;;;;;;;5005069;28;20030;-88
2022/01/10 07:51:19;;;;;;;32.28;11.23;;;;;;;;;;4980262;28;20365;-87
2022/01/10 07:53:45;;;;;;;24.88;12.57;;;;;;;;;;4979994;28;20030;-87
2022/01/10 07:56:11;;;;;;;26.95;12.40;;;;;;;;;;4979548;28;20027;-88
2022/01/10 07:58:37;;;;;;;27.10;12.35;;;;;;;;;;4980713;28;20038;-87
2022/01/10 08:01:03;;;;;;;23.75;12.93;;;;;;;;;;4996848;28;20034;-87
2022/01/10 08:03:29;;;;;;;22.95;11.00;;;;;;;;;;4998369;28;20042;-86
2022/01/10 08:05:54;;;;;;;29.80;12.65;;;;;;;;;;4985341;28;20113;-85
2022/01/10 08:08:20;;;;;;;18.20;10.85;;;;;;;;;;4989564;28;20026;-85
2022/01/10 08:10:45;;;;;;;21.90;11.43;;;;;;;;;;4993819;28;20181;-83
2022/01/10 08:13:11;;;;;;;18.60;10.93;;;;;;;;;;4995598;28;20109;-86
2022/01/10 08:15:37;;;;;;;25.38;13.65;;;;;;;;;;4995407;28;20026;-86
2022/01/10 08:18:04;;;;;;;23.65;12.60;;;;;;;;;;4995527;28;20104;-86
2022/01/10 08:20:29;;;;;;;29.55;14.45;;;;;;;;;;4987959;28;20117;-87
2022/01/10 08:22:55;;;;;;;26.45;13.07;;;;;;;;;;4990091;28;20121;-85
2022/01/10 08:25:20;;;;;;;24.92;13.32;;;;;;;;;;4995614;28;20022;-84
2022/01/10 08:27:46;;;;;;;29.98;13.48;;;;;;;;;;4995609;28;20026;-85
2022/01/10 08:30:11;;;;;;;26.80;14.23;;;;;;;;;;4999852;28;20380;-86
2022/01/10 08:32:37;;;;;;;21.75;11.68;;;;;;;;;;4997640;28;20076;-83
2022/01/10 08:35:04;;;;;;;26.70;11.07;;;;;;;;;;4997156;28;20029;-87
2022/01/10 08:37:29;;;;;;;20.85;10.85;;;;;;;;;;4979153;28;20053;-86
2022/01/10 08:39:54;;;;;;;27.60;11.82;;;;;;;;;;4993437;28;20026;-85
2022/01/10 08:42:20;;;;;;;34.83;15.90;;;;;;;;;;4988285;28;20281;-81
2022/01/10 08:44:46;;;;;;;24.52;10.38;;;;;;;;;;5018400;28;20065;-81
2022/01/10 08:47:12;;;;;;;18.77;11.25;;;;;;;;;;5001291;28;20018;-81
2022/01/10 08:49:38;;;;;;;24.17;10.70;;;;;;;;;;5018316;28;20029;-82
2022/01/10 08:52:04;;;;;;;21.55;10.88;;;;;;;;;;5016672;28;20026;-80
2022/01/10 08:54:29;;;;;;;21.10;11.75;;;;;;;;;;5000825;28;20037;-83
2022/01/10 08:56:55;;;;;;;29.35;12.07;;;;;;;;;;5000216;28;20006;-83
2022/01/10 08:59:21;;;;;;;24.80;12.98;;;;;;;;;;5017390;28;20033;-82
2022/01/10 09:01:47;;;;;;;25.80;11.50;;;;;;;;;;5017655;28;20026;-83
2022/01/10 09:04:16;;;;;;;25.52;12.48;;;;;;;;;;5017368;28;20029;-84
2022/01/10 09:06:46;;;;;;;24.02;11.45;;;;;;;;;;5001377;28;20022;-85
2022/01/10 09:09:12;;;;;;;23.42;11.48;;;;;;;;;;4999517;28;20018;-84
2022/01/10 09:11:37;;;;;;;23.23;12.30;;;;;;;;;;5016980;28;20075;-85
2022/01/10 09:14:03;;;;;;;26.77;12.43;;;;;;;;;;5012904;28;20022;-84
2022/01/10 09:16:29;;;;;;;24.83;11.70;;;;;;;;;;4994733;28;20478;-86
2022/01/10 09:18:54;;;;;;;24.17;12.27;;;;;;;;;;5004512;28;20031;-89
2022/01/10 09:21:19;;;;;;;28.50;12.68;;;;;;;;;;4997571;28;20395;-88
2022/01/10 09:23:45;;;;;;;30.23;12.48;;;;;;;;;;4983353;28;20022;-89
2022/01/10 09:26:10;;;;;;;23.52;11.80;;;;;;;;;;4996311;28;20018;-88
2022/01/10 09:28:36;;;;;;;23.60;11.93;;;;;;;;;;4996382;28;20384;-86
2022/01/10 09:31:01;;;;;;;29.20;13.55;;;;;;;;;;4981113;28;20120;-88
2022/01/10 09:33:27;;;;;;;29.33;14.50;;;;;;;;;;4989600;28;20018;-87
2022/01/10 09:35:52;;;;;;;21.48;11.35;;;;;;;;;;4991019;28;20023;-86
2022/01/10 09:38:18;;;;;;;24.60;12.85;;;;;;;;;;4988815;28;20092;-88
2022/01/10 09:40:43;;;;;;;25.90;13.02;;;;;;;;;;4998595;28;20029;-88
2022/01/10 09:43:09;;;;;;;23.63;12.05;;;;;;;;;;4976682;28;20117;-88
2022/01/10 09:45:35;;;;;;;25.85;12.88;;;;;;;;;;4993873;28;20030;-86
2022/01/10 09:48:01;;;;;;;23.77;12.07;;;;;;;;;;4993243;28;20018;-88
2022/01/10 09:50:27;;;;;;;21.90;11.15;;;;;;;;;;4994520;28;20030;-86
2022/01/10 09:52:52;;;;;;;21.02;11.80;;;;;;;;;;4995041;28;20058;-87
2022/01/10 09:55:18;;;;;;;24.85;12.57;;;;;;;;;;4994705;28;20075;-88
2022/01/10 09:57:44;;;;;;;30.17;14.00;;;;;;;;;;4992990;28;20034;-86
2022/01/10 10:00:10;;;;;;;27.58;13.45;;;;;;;;;;4992499;28;20429;-86
2022/01/10 10:02:37;;;;;;;22.67;12.95;;;;;;;;;;4992634;28;20022;-86
2022/01/10 10:05:08;;;;;;;28.02;13.23;;;;;;;;;;4993941;28;20023;-89
2022/01/10 10:07:36;;;;;;;22.48;11.50;;;;;;;;;;4995255;28;20029;-86
2022/01/10 10:10:07;;;;;;;19.83;11.70;;;;;;;;;;4994098;28;20057;-86
2022/01/10 10:12:33;;;;;;;23.17;12.55;;;;;;;;;;4991529;28;20084;-85
2022/01/10 10:15:00;;;;;;;25.13;13.20;;;;;;;;;;4981144;28;20025;-82
2022/01/10 10:17:28;;;;;;;25.90;12.18;;;;;;;;;;5004171;28;20034;-87
2022/01/10 10:19:54;;;;;;;22.92;13.60;;;;;;;;;;4978293;28;20026;-87
2022/01/10 10:22:20;;;;;;;22.02;12.25;;;;;;;;;;4978252;28;20504;-88
2022/01/10 10:24:49;;;;;;;17.67;11.13;;;;;;;;;;4997777;28;20682;-87
2022/01/10 10:27:17;;;;;;;22.45;11.63;;;;;;;;;;4992972;28;20126;-88
2022/01/10 10:29:44;;;;;;;23.23;11.15;;;;;;;;;;5010874;28;20022;-86
2022/01/10 10:32:10;;;;;;;25.13;12.18;;;;;;;;;;5013061;28;20072;-85
2022/01/10 10:34:35;;;;;;;22.90;12.50;;;;;;;;;;4994223;28;20037;-85
2022/01/10 10:37:05;;;;;;;22.15;10.80;;;;;;;;;;5012753;28;20032;-88
2022/01/10 10:39:33;;;;;;;21.05;12.77;;;;;;;;;;4992550;28;20403;-87
2022/01/10 10:42:01;;;;;;;20.70;11.40;;;;;;;;;;4991678;28;20022;-87
2022/01/10 10:44:27;;;;;;;27.83;11.48;;;;;;;;;;4980387;28;20138;-87
2022/01/10 10:46:53;;;;;;;22.42;10.95;;;;;;;;;;4993409;28;20085;-84
2022/01/10 10:49:20;;;;;;;24.35;11.68;;;;;;;;;;4993917;28;20360;-88
2022/01/10 10:51:51;;;;;;;20.25;10.13;;;;;;;;;;4976684;28;20054;-86
2022/01/10 10:54:18;;;;;;;22.23;11.88;;;;;;;;;;4986056;28;20548;-87
2022/01/10 10:56:44;;;;;;;18.90;8.70;;;;;;;;;;4993165;28;20094;-86
2022/01/10 10:59:11;;;;;;;27.13;9.68;;;;;;;;;;4993931;28;20502;-85
2022/01/10 11:01:39;;;;;;;15.10;9.57;;;;;;;;;;4975031;28;20076;-85
2022/01/10 11:04:06;;;;;;;17.15;9.35;;;;;;;;;;4992924;28;20077;-86
2022/01/10 11:06:35;;;;;;;18.98;10.30;;;;;;;;;;4996134;28;20034;-87
2022/01/10 11:09:06;;;;;;;24.77;11.18;;;;;;;;;;4994058;28;20030;-85
2022/01/10 11:11:31;;;;;;;19.67;10.27;;;;;;;;;;4992820;28;20018;-86
2022/01/10 11:13:58;;;;;;;19.38;10.98;;;;;;;;;;4992024;28;20037;-86
2022/01/10 11:16:25;;;;;;;22.95;10.88;;;;;;;;;;4999043;28;20018;-85
2022/01/10 11:18:51;;;;;;;16.42;10.13;;;;;;;;;;5023105;28;20022;-88
2022/01/10 11:21:16;;;;;;;28.30;11.07;;;;;;;;;;4996957;28;20028;-86
2022/01/10 11:23:45;;;;;;;16.85;9.00;;;;;;;;;;4976833;28;20097;-88
2022/01/10 11:26:14;;;;;;;18.65;9.52;;;;;;;;;;4977597;28;20023;-86
2022/01/10 11:28:52;;;;;;;13.65;9.23;;;;;;;;;;4996374;28;20026;-86
2022/01/10 11:31:24;;;;;;;26.05;11.10;;;;;;;;;;4979385;28;20575;-88
2022/01/10 11:33:51;;;;;;;16.90;9.05;;;;;;;;;;4995991;28;20033;-88
2022/01/10 11:36:20;;;;;;;20.30;11.63;;;;;;;;;;4994074;28;20041;-87
2022/01/10 11:38:52;;;;;;;23.02;12.18;;;;;;;;;;4977686;28;20101;-86
2022/01/10 11:41:19;;;;;;;27.17;12.50;;;;;;;;;;4988216;28;20124;-87
2022/01/10 11:43:55;;;;;;;19.63;10.57;;;;;;;;;;4993998;28;20017;-86
2022/01/10 11:46:39;;;;;;;25.35;12.20;;;;;;;;;;4991730;28;20025;-86
2022/01/10 11:49:08;;;;;;;22.30;10.60;;;;;;;;;;4993446;28;20034;-88
2022/01/10 11:51:49;;;;;;;20.60;11.13;;;;;;;;;;4978679;28;20498;-88
2022/01/10 11:54:26;;;;;;;21.08;10.43;;;;;;;;;;4985609;28;20152;-87
2022/01/10 11:56:58;;;;;;;20.48;9.73;;;;;;;;;;4995285;28;20031;-88
2022/01/10 11:59:29;;;;;;;22.27;10.38;;;;;;;;;;4995003;28;20483;-87
2022/01/10 12:02:04;;;;;;;18.10;10.13;;;;;;;;;;4999041;28;20038;-88
2022/01/10 12:04:35;;;;;;;21.77;9.95;;;;;;;;;;4997461;28;20027;-87
2022/01/10 12:07:05;;;;;;;20.40;10.65;;;;;;;;;;4980418;28;20029;-87
2022/01/10 12:09:31;;;;;;;21.42;11.35;;;;;;;;;;4980002;28;20026;-88
2022/01/10 12:11:59;;;;;;;22.30;11.93;;;;;;;;;;4998643;28;20028;-87
2022/01/10 12:14:25;;;;;;;22.85;11.02;;;;;;;;;;4998556;28;20018;-86
2022/01/10 12:16:51;;;;;;;21.70;12.50;;;;;;;;;;4998678;28;20068;-86
2022/01/10 12:19:18;;;;;;;18.88;11.15;;;;;;;;;;5000584;28;20022;-87
2022/01/10 12:21:43;;;;;;;22.55;11.43;;;;;;;;;;4975704;28;20477;-88
2022/01/10 12:24:10;;;;;;;24.67;12.20;;;;;;;;;;5000427;28;20035;-88
2022/01/10 12:26:36;;;;;;;51.33;22.63;;;;;;;;;;4982966;28;20112;-85
2022/01/10 12:29:03;;;;;;;22.98;10.73;;;;;;;;;;4981213;28;20030;-87
2022/01/10 12:31:30;;;;;;;26.45;12.65;;;;;;;;;;4979429;28;20038;-88
2022/01/10 12:33:58;;;;;;;21.17;12.13;;;;;;;;;;4996305;28;20045;-88
2022/01/10 12:36:25;;;;;;;22.15;11.18;;;;;;;;;;5001009;28;20023;-88
2022/01/10 12:38:58;;;;;;;23.27;10.85;;;;;;;;;;5005086;28;20078;-88
2022/01/10 12:41:25;;;;;;;25.40;11.45;;;;;;;;;;4977653;28;20023;-88
2022/01/10 12:43:51;;;;;;;23.90;11.93;;;;;;;;;;4995185;28;20061;-88
2022/01/10 12:46:17;;;;;;;27.80;12.23;;;;;;;;;;5002346;28;20023;-88
2022/01/10 12:48:46;;;;;;;25.42;11.27;;;;;;;;;;4983575;28;20072;-89
2022/01/10 12:51:13;;;;;;;22.75;10.05;;;;;;;;;;4978466;28;20018;-88
2022/01/10 12:53:39;;;;;;;21.73;10.90;;;;;;;;;;4992061;28;20116;-88
2022/01/10 12:56:04;;;;;;;20.90;11.35;;;;;;;;;;4997173;28;20031;-86
2022/01/10 12:58:33;;;;;;;21.10;10.88;;;;;;;;;;4981901;28;20030;-87
2022/01/10 13:01:07;;;;;;;24.83;10.85;;;;;;;;;;4996231;28;20722;-87
2022/01/10 13:03:32;;;;;;;24.30;11.13;;;;;;;;;;4979708;28;20077;-87
2022/01/10 13:05:58;;;;;;;22.98;10.80;;;;;;;;;;4981845;28;20030;-89
2022/01/10 13:08:26;;;;;;;24.52;11.23;;;;;;;;;;4986256;28;20492;-88
2022/01/10 13:10:52;;;;;;;23.88;11.68;;;;;;;;;;4997660;28;20535;-87
2022/01/10 13:13:22;;;;;;;25.40;11.57;;;;;;;;;;4998552;28;20049;-88
2022/01/10 13:15:47;;;;;;;25.45;12.18;;;;;;;;;;4977321;28;20385;-87
2022/01/10 13:18:14;;;;;;;20.85;11.00;;;;;;;;;;4997063;28;20468;-88
2022/01/10 13:20:39;;;;;;;17.13;10.25;;;;;;;;;;4992965;28;20030;-87
2022/01/10 13:23:05;;;;;;;17.35;9.90;;;;;;;;;;4996784;28;20146;-86
2022/01/10 13:25:49;;;;;;;22.13;9.85;;;;;;;;;;4997504;28;20484;-88
2022/01/10 13:28:15;;;;;;;19.75;9.35;;;;;;;;;;4994214;28;20053;-87
2022/01/10 13:30:51;;;;;;;22.05;10.30;;;;;;;;;;4976114;28;20365;-89
2022/01/10 13:33:18;;;;;;;19.92;9.52;;;;;;;;;;4980590;28;20031;-88
2022/01/10 13:35:55;;;;;;;18.30;9.18;;;;;;;;;;4996787;28;20026;-87
2022/01/10 13:38:25;;;;;;;18.65;9.23;;;;;;;;;;4996049;28;20030;-87
2022/01/10 13:40:51;;;;;;;20.58;10.30;;;;;;;;;;4998820;28;20453;-87
2022/01/10 13:43:28;;;;;;;21.65;10.52;;;;;;;;;;4979620;28;20021;-86
2022/01/10 13:46:00;;;;;;;19.48;8.45;;;;;;;;;;4980559;28;20037;-89
2022/01/10 13:48:38;;;;;;;16.08;8.35;;;;;;;;;;4998179;28;20018;-88
2022/01/10 13:51:20;;;;;;;16.58;8.75;;;;;;;;;;4997092;28;20054;-88
2022/01/10 13:53:53;;;;;;;;;;;;;;;;;;4995209;28;20508;-89
2022/01/10 13:56:25;;;;;;;19.92;9.32;;;;;;;;;;4995428;28;19941;-89
2022/01/10 13:58:53;;;;;;;21.10;10.43;;;;;;;;;;4997785;28;20031;-89
2022/01/10 14:01:21;;;;;;;21.83;10.52;;;;;;;;;;4977857;28;20844;-88
2022/01/10 14:03:49;;;;;;;18.17;9.43;;;;;;;;;;4980940;28;20026;-89
2022/01/10 14:06:15;;;;;;;25.42;10.52;;;;;;;;;;4982410;28;20030;-88
2022/01/10 14:08:50;;;;;;;22.85;10.43;;;;;;;;;;4981941;28;20091;-88
2022/01/10 14:11:17;;;;;;;24.70;11.40;;;;;;;;;;4997503;28;20476;-89
2022/01/10 14:13:47;;;;;;;21.00;11.35;;;;;;;;;;4979288;28;20033;-89
2022/01/10 14:16:14;;;;;;;20.65;10.27;;;;;;;;;;4995229;28;20042;-88
2022/01/10 14:18:40;;;;;;;29.70;11.85;;;;;;;;;;4993528;28;20050;-88
2022/01/10 14:21:08;;;;;;;22.15;10.82;;;;;;;;;;4994982;28;20029;-88
2022/01/10 14:23:34;;;;;;;22.75;10.27;;;;;;;;;;4982398;28;20022;-88
2022/01/10 14:25:59;;;;;;;22.60;10.15;;;;;;;;;;4995676;28;20030;-88
2022/01/10 14:28:25;;;;;;;25.55;10.57;;;;;;;;;;4978931;28;20368;-88
2022/01/10 14:30:51;;;;;;;20.38;10.32;;;;;;;;;;4973735;28;20038;-87
2022/01/10 14:33:16;;;;;;;18.77;10.32;;;;;;;;;;4975782;28;20030;-88
2022/01/10 14:35:42;;;;;;;24.38;9.43;;;;;;;;;;4976387;28;20117;-88
2022/01/10 14:38:07;;;;;;;25.40;10.75;;;;;;;;;;4977163;28;20763;-85
2022/01/10 14:40:33;;;;;;;20.70;10.52;;;;;;;;;;4994347;28;20045;-86